createdAt,value
2022-12-31T00:01:10.244Z,8.76
2022-12-31T00:03:38.208Z,8.74
2022-12-31T00:06:16.722Z,8.72
2022-12-31T00:08:45.062Z,8.76
2022-12-31T00:11:11.768Z,8.75
2022-12-31T00:13:39.261Z,8.75
2022-12-31T00:16:17.594Z,8.77
2022-12-31T00:18:46.921Z,8.76
2022-12-31T00:21:14.850Z,8.77
2022-12-31T00:23:41.553Z,8.78
2022-12-31T00:26:11.045Z,8.76
2022-12-31T00:28:39.019Z,8.74
2022-12-31T00:31:12.570Z,8.68
2022-12-31T00:33:40.380Z,8.72
2022-12-31T00:36:10.344Z,8.73
2022-12-31T00:38:38.305Z,8.72
2022-12-31T00:41:06.365Z,8.73
2022-12-31T00:43:33.383Z,8.74
2022-12-31T00:46:00.553Z,8.73
2022-12-31T00:48:28.101Z,8.72
2022-12-31T00:50:55.961Z,8.69
2022-12-31T00:53:24.035Z,8.70
2022-12-31T00:55:50.880Z,8.68
2022-12-31T00:58:17.463Z,8.66
2022-12-31T01:00:44.545Z,8.69
2022-12-31T01:03:11.148Z,8.71
2022-12-31T01:05:37.916Z,8.69
2022-12-31T01:08:05.708Z,8.66
2022-12-31T01:10:52.187Z,8.67
2022-12-31T01:13:18.805Z,8.64
2022-12-31T01:15:45.517Z,8.62
2022-12-31T01:18:12.596Z,8.63
2022-12-31T01:20:41.958Z,8.63
2022-12-31T01:23:10.974Z,8.63
2022-12-31T01:25:39.706Z,8.65
2022-12-31T01:28:06.611Z,8.68
2022-12-31T01:30:33.232Z,8.69
2022-12-31T01:32:59.800Z,8.70
2022-12-31T01:35:26.354Z,8.72
2022-12-31T01:37:52.949Z,8.76
2022-12-31T01:40:19.541Z,8.70
2022-12-31T01:42:53.435Z,8.74
2022-12-31T01:45:20.118Z,8.78
2022-12-31T01:47:51.693Z,8.79
2022-12-31T01:50:25.250Z,8.78
2022-12-31T01:52:57.528Z,8.76
2022-12-31T01:58:07.901Z,8.86
2022-12-31T02:00:34.877Z,8.84
2022-12-31T02:03:02.694Z,8.86
2022-12-31T02:06:09.114Z,8.83
2022-12-31T02:08:41.950Z,8.87
2022-12-31T02:14:06.103Z,9.20
2022-12-31T02:17:01.167Z,9.06
2022-12-31T02:28:09.839Z,9.12
2022-12-31T02:30:37.586Z,9.13
2022-12-31T02:38:24.081Z,9.53
2022-12-31T02:40:54.403Z,9.39
2022-12-31T02:43:20.932Z,9.36
2022-12-31T02:46:01.026Z,9.35
2022-12-31T02:49:07.389Z,9.31
2022-12-31T02:51:46.223Z,9.37
2022-12-31T03:00:00.764Z,9.37
2022-12-31T03:02:30.965Z,9.40
2022-12-31T03:05:01.362Z,9.40
2022-12-31T03:07:30.548Z,9.44
2022-12-31T03:09:57.465Z,9.41
2022-12-31T03:12:48.825Z,9.42
2022-12-31T03:15:20.160Z,9.44
2022-12-31T03:17:49.634Z,9.45
2022-12-31T03:20:36.316Z,9.42
2022-12-31T03:23:06.341Z,9.42
2022-12-31T03:25:34.870Z,9.43
2022-12-31T03:28:03.357Z,9.45
2022-12-31T03:30:31.037Z,9.45
2022-12-31T03:32:58.256Z,9.45
2022-12-31T03:35:26.588Z,9.42
2022-12-31T03:37:53.754Z,9.42
2022-12-31T03:40:23.280Z,9.46
2022-12-31T03:42:49.919Z,9.47
2022-12-31T03:45:17.416Z,9.49
2022-12-31T03:47:44.467Z,9.50
2022-12-31T03:50:13.392Z,9.55
2022-12-31T03:52:40.355Z,9.55
2022-12-31T03:55:08.368Z,9.56
2022-12-31T03:57:35.347Z,9.54
2022-12-31T04:00:02.553Z,9.54
2022-12-31T04:02:29.667Z,9.54
2022-12-31T04:04:56.443Z,9.54
2022-12-31T04:07:23.507Z,9.57
2022-12-31T04:09:50.104Z,9.57
2022-12-31T04:12:16.749Z,9.57
2022-12-31T04:14:43.358Z,9.57
2022-12-31T04:17:09.996Z,9.56
2022-12-31T04:19:37.779Z,9.55
2022-12-31T04:22:05.188Z,9.55
2022-12-31T04:24:32.004Z,9.55
2022-12-31T04:27:05.377Z,9.55
2022-12-31T04:29:34.501Z,9.54
2022-12-31T04:32:01.455Z,9.48
2022-12-31T04:34:28.054Z,9.55
2022-12-31T04:36:54.719Z,9.48
2022-12-31T04:39:21.277Z,9.51
2022-12-31T04:41:47.839Z,9.50
2022-12-31T04:44:14.425Z,9.48
2022-12-31T04:46:41.044Z,9.47
2022-12-31T04:49:07.868Z,9.49
2022-12-31T04:51:35.181Z,9.47
2022-12-31T04:54:01.990Z,9.48
2022-12-31T04:56:29.470Z,9.48
2022-12-31T04:58:56.327Z,9.47
2022-12-31T05:01:23.091Z,9.46
2022-12-31T05:03:49.976Z,9.48
2022-12-31T05:06:19.941Z,9.47
2022-12-31T05:08:47.316Z,9.47
2022-12-31T05:11:13.938Z,9.47
2022-12-31T05:13:40.630Z,9.46
2022-12-31T05:16:07.762Z,9.44
2022-12-31T05:18:35.543Z,9.46
2022-12-31T05:21:02.383Z,9.43
2022-12-31T05:23:29.036Z,9.48
2022-12-31T05:25:55.975Z,9.46
2022-12-31T05:28:22.666Z,9.42
2022-12-31T05:30:50.839Z,9.47
2022-12-31T05:33:18.343Z,9.46
2022-12-31T05:35:45.717Z,9.47
2022-12-31T05:38:12.283Z,9.50
2022-12-31T05:40:38.834Z,9.51
2022-12-31T05:43:05.798Z,9.58
2022-12-31T05:45:32.355Z,9.60
2022-12-31T05:47:59.215Z,9.58
2022-12-31T05:50:26.296Z,9.61
2022-12-31T05:52:52.914Z,9.64
2022-12-31T05:55:21.213Z,9.67
2022-12-31T05:57:47.829Z,9.70
2022-12-31T06:00:15.285Z,9.70
2022-12-31T06:02:41.904Z,9.68
2022-12-31T06:05:09.222Z,9.72
2022-12-31T06:07:35.886Z,9.68
2022-12-31T06:10:02.450Z,9.69
2022-12-31T06:12:29.061Z,9.76
2022-12-31T06:14:55.687Z,9.79
2022-12-31T06:17:22.585Z,9.81
2022-12-31T06:19:49.205Z,9.82
2022-12-31T06:22:16.062Z,9.86
2022-12-31T06:24:42.737Z,9.90
2022-12-31T06:27:09.430Z,9.94
2022-12-31T06:29:36.032Z,9.97
2022-12-31T06:32:02.660Z,10.00
2022-12-31T06:34:29.185Z,10.08
2022-12-31T06:36:55.886Z,10.11
2022-12-31T06:39:22.594Z,10.13
2022-12-31T06:41:49.152Z,10.17
2022-12-31T06:44:15.795Z,10.21
2022-12-31T06:46:42.402Z,10.26
2022-12-31T06:49:08.988Z,10.29
2022-12-31T06:51:35.566Z,10.33
2022-12-31T06:54:02.168Z,10.42
2022-12-31T06:56:34.270Z,10.47
2022-12-31T06:59:01.540Z,10.51
2022-12-31T07:07:31.138Z,10.65
2022-12-31T07:10:07.560Z,10.69
2022-12-31T07:12:58.318Z,10.72
2022-12-31T07:21:11.767Z,10.83
2022-12-31T07:23:38.757Z,10.84
2022-12-31T07:42:24.230Z,11.14
2022-12-31T07:45:01.249Z,11.13
2022-12-31T07:47:29.114Z,11.19
2022-12-31T07:49:56.801Z,11.18
2022-12-31T07:52:23.803Z,11.22
2022-12-31T07:54:50.510Z,11.23
2022-12-31T07:57:19.801Z,11.18
2022-12-31T08:00:09.524Z,11.16
2022-12-31T08:11:47.265Z,11.25
2022-12-31T08:14:15.468Z,11.27
2022-12-31T08:16:42.621Z,11.32
2022-12-31T08:19:22.630Z,11.31
2022-12-31T08:24:58.661Z,11.29
2022-12-31T08:30:15.336Z,11.35
2022-12-31T08:38:17.380Z,11.36
2022-12-31T08:45:58.511Z,11.40
2022-12-31T08:51:02.934Z,11.43
2022-12-31T08:53:29.929Z,11.44
2022-12-31T08:56:05.730Z,11.40
2022-12-31T09:01:15.147Z,11.46
2022-12-31T09:06:33.094Z,11.46
2022-12-31T09:12:10.443Z,11.49
2022-12-31T09:15:03.254Z,11.44
2022-12-31T09:20:15.879Z,11.76
2022-12-31T09:22:42.949Z,11.64
2022-12-31T09:25:15.616Z,11.61
2022-12-31T09:30:29.232Z,11.62
2022-12-31T09:33:07.383Z,11.63
2022-12-31T09:38:37.446Z,11.67
2022-12-31T09:52:53.480Z,11.69
2022-12-31T09:55:59.953Z,11.76
2022-12-31T10:04:28.050Z,11.85
2022-12-31T10:10:13.095Z,12.14
2022-12-31T10:18:34.042Z,11.97
2022-12-31T10:26:32.636Z,11.97
2022-12-31T10:29:13.894Z,11.99
2022-12-31T10:37:11.109Z,12.05
2022-12-31T10:42:50.057Z,12.04
2022-12-31T11:10:16.724Z,12.30
2022-12-31T11:16:00.510Z,12.33
2022-12-31T11:29:28.740Z,12.42
2022-12-31T11:35:02.191Z,12.69
2022-12-31T11:37:36.902Z,12.58
2022-12-31T11:56:23.315Z,12.65
2022-12-31T11:58:53.363Z,12.57
2022-12-31T12:01:24.727Z,12.44
2022-12-31T12:03:51.458Z,12.51
2022-12-31T12:06:24.929Z,12.55
2022-12-31T12:08:51.733Z,12.52
2022-12-31T12:11:23.562Z,12.51
2022-12-31T12:13:51.768Z,12.52
2022-12-31T12:16:21.223Z,12.52
2022-12-31T12:19:00.855Z,12.54
2022-12-31T12:21:28.585Z,12.54
2022-12-31T12:24:06.129Z,12.47
2022-12-31T12:26:43.191Z,12.51
2022-12-31T12:29:22.962Z,12.47
2022-12-31T12:32:13.746Z,12.44
2022-12-31T12:34:47.574Z,12.45
2022-12-31T12:37:34.525Z,12.41
2022-12-31T12:40:09.479Z,12.47
2022-12-31T12:42:36.109Z,12.46
2022-12-31T12:47:42.504Z,12.46
2022-12-31T12:50:17.993Z,12.48
2022-12-31T12:55:40.263Z,12.48
2022-12-31T12:58:25.205Z,12.49
2022-12-31T13:01:23.947Z,12.49
2022-12-31T13:09:48.393Z,12.81
2022-12-31T13:12:24.501Z,12.63
2022-12-31T13:15:03.080Z,12.58
2022-12-31T13:28:16.482Z,12.51
2022-12-31T13:30:46.914Z,12.42
2022-12-31T13:33:18.352Z,12.45
2022-12-31T13:38:28.537Z,12.42
2022-12-31T13:41:04.955Z,12.36
2022-12-31T13:43:43.381Z,12.37
2022-12-31T13:46:52.182Z,12.31
2022-12-31T13:52:18.108Z,12.33
2022-12-31T13:55:00.036Z,12.31
2022-12-31T13:57:41.297Z,12.29
2022-12-31T14:00:27.677Z,12.26
2022-12-31T14:05:41.806Z,12.26
2022-12-31T14:08:09.848Z,12.26
2022-12-31T14:11:05.108Z,12.22
2022-12-31T14:14:11.462Z,12.19
2022-12-31T14:16:51.884Z,12.19
2022-12-31T14:24:49.934Z,12.51
2022-12-31T14:27:30.147Z,12.28
2022-12-31T14:30:03.323Z,12.26
2022-12-31T14:32:57.311Z,12.22
2022-12-31T14:46:32.013Z,12.08
2022-12-31T14:51:36.361Z,12.39
2022-12-31T14:54:02.925Z,12.14
2022-12-31T14:56:40.643Z,12.10
2022-12-31T14:59:30.837Z,12.00
2022-12-31T15:01:59.228Z,12.03
2022-12-31T15:04:43.597Z,11.99
2022-12-31T15:07:36.575Z,11.92
2022-12-31T15:10:16.034Z,11.93
2022-12-31T15:13:06.745Z,11.88
2022-12-31T15:16:04.627Z,11.87
2022-12-31T15:23:46.240Z,11.83
2022-12-31T15:26:31.535Z,11.77
2022-12-31T15:29:01.600Z,11.79
2022-12-31T15:31:28.687Z,11.63
2022-12-31T15:36:38.995Z,11.70
2022-12-31T15:39:23.341Z,11.71
2022-12-31T15:42:27.638Z,11.66
2022-12-31T15:50:13.613Z,11.69
2022-12-31T15:52:43.705Z,11.69
2022-12-31T15:55:19.937Z,11.55
2022-12-31T15:57:47.364Z,11.65
2022-12-31T16:00:19.452Z,11.65
2022-12-31T16:02:48.409Z,11.64
2022-12-31T16:05:19.905Z,11.65
2022-12-31T16:07:46.777Z,11.66
2022-12-31T16:10:21.587Z,11.64
2022-12-31T16:12:49.406Z,11.65
2022-12-31T16:15:23.464Z,11.64
2022-12-31T16:18:00.878Z,11.63
2022-12-31T16:20:31.211Z,11.65
2022-12-31T16:23:00.090Z,11.64
2022-12-31T16:25:31.605Z,11.61
2022-12-31T16:28:01.579Z,11.61
2022-12-31T16:30:30.910Z,11.60
2022-12-31T16:33:03.211Z,11.59
2022-12-31T16:35:32.475Z,11.59
2022-12-31T16:38:17.200Z,11.52
2022-12-31T16:41:12.717Z,11.53
2022-12-31T16:43:41.213Z,11.53
2022-12-31T16:46:16.174Z,11.53
2022-12-31T16:51:36.188Z,11.50
2022-12-31T16:54:03.515Z,11.50
2022-12-31T16:56:38.220Z,11.50
2022-12-31T16:59:23.275Z,11.47
2022-12-31T17:01:52.680Z,11.49
2022-12-31T17:04:20.948Z,11.50
2022-12-31T17:06:48.110Z,11.48
2022-12-31T17:09:31.553Z,11.45
2022-12-31T17:12:13.975Z,11.41
2022-12-31T17:14:50.838Z,11.40
2022-12-31T17:17:25.763Z,11.40
2022-12-31T17:19:58.821Z,11.40
2022-12-31T17:22:36.355Z,11.40
2022-12-31T17:25:08.516Z,11.40
2022-12-31T17:27:37.298Z,11.37
2022-12-31T17:33:06.160Z,11.29
2022-12-31T17:35:37.180Z,11.29
2022-12-31T17:43:44.865Z,11.21
2022-12-31T17:46:14.134Z,11.22
2022-12-31T17:48:41.703Z,11.22
2022-12-31T17:51:08.365Z,11.23
2022-12-31T17:53:35.229Z,11.23
2022-12-31T17:56:05.125Z,11.23
2022-12-31T17:58:36.666Z,11.24
2022-12-31T18:01:07.785Z,11.25
2022-12-31T18:03:34.675Z,11.27
2022-12-31T18:06:01.358Z,11.28
2022-12-31T18:08:27.971Z,11.34
2022-12-31T18:10:55.015Z,11.36
2022-12-31T18:13:24.568Z,11.41
2022-12-31T18:15:52.416Z,11.42
2022-12-31T18:21:01.210Z,11.51
2022-12-31T18:23:37.456Z,11.53
2022-12-31T18:26:04.097Z,11.57
2022-12-31T18:28:30.834Z,11.63
2022-12-31T18:30:58.205Z,11.66
2022-12-31T18:33:26.829Z,11.64
2022-12-31T18:36:10.524Z,11.67
2022-12-31T18:38:37.910Z,11.70
2022-12-31T18:41:04.675Z,11.68
2022-12-31T18:43:31.651Z,11.72
2022-12-31T18:45:58.811Z,11.73
2022-12-31T18:48:25.979Z,11.74
2022-12-31T18:50:53.260Z,11.77
2022-12-31T18:53:22.722Z,11.72
2022-12-31T18:55:55.085Z,11.76
2022-12-31T18:58:22.357Z,11.76
2022-12-31T19:00:50.740Z,11.78
2022-12-31T19:03:21.066Z,11.79
2022-12-31T19:05:51.283Z,11.79
2022-12-31T19:08:19.786Z,11.81
2022-12-31T19:10:47.956Z,11.81
2022-12-31T19:13:15.922Z,11.83
2022-12-31T19:15:46.760Z,11.82
2022-12-31T19:18:13.386Z,11.81
2022-12-31T19:20:41.154Z,11.82
2022-12-31T19:23:18.706Z,11.82
2022-12-31T19:25:48.526Z,11.82
2022-12-31T19:28:17.861Z,11.81
2022-12-31T19:30:45.377Z,11.78
2022-12-31T19:33:12.408Z,11.78
2022-12-31T19:35:40.302Z,11.76
2022-12-31T19:38:20.950Z,11.73
2022-12-31T19:40:48.509Z,11.72
2022-12-31T19:43:18.011Z,11.72
2022-12-31T19:45:46.257Z,11.70
2022-12-31T19:48:17.324Z,11.70
2022-12-31T19:50:48.369Z,11.70
2022-12-31T19:53:19.589Z,11.70
2022-12-31T19:55:46.238Z,11.70
2022-12-31T19:58:20.858Z,11.65
2022-12-31T20:00:55.671Z,11.66
2022-12-31T20:03:25.796Z,11.63
2022-12-31T20:06:02.335Z,11.63
2022-12-31T20:08:28.905Z,11.65
2022-12-31T20:10:59.332Z,11.63
2022-12-31T20:13:27.753Z,11.64
2022-12-31T20:15:54.411Z,11.65
2022-12-31T20:18:22.961Z,11.65
2022-12-31T20:20:55.617Z,11.65
2022-12-31T20:23:22.929Z,11.65
2022-12-31T20:25:59.435Z,11.59
2022-12-31T20:28:26.172Z,11.48
2022-12-31T20:30:52.945Z,11.56
2022-12-31T20:33:20.871Z,11.51
2022-12-31T20:35:47.514Z,11.51
2022-12-31T20:38:14.120Z,11.48
2022-12-31T20:40:46.466Z,11.44
2022-12-31T20:43:13.596Z,11.37
2022-12-31T20:45:41.533Z,11.36
2022-12-31T20:48:08.137Z,11.30
2022-12-31T20:50:34.703Z,11.29
2022-12-31T20:53:02.043Z,11.27
2022-12-31T20:55:30.743Z,11.25
2022-12-31T20:57:57.346Z,11.22
2022-12-31T21:00:23.974Z,11.17
2022-12-31T21:03:00.329Z,11.16
2022-12-31T21:05:30.938Z,11.12
2022-12-31T21:07:57.592Z,11.11
2022-12-31T21:10:24.240Z,11.08
2022-12-31T21:12:53.432Z,11.06
2022-12-31T21:15:21.553Z,11.05
2022-12-31T21:17:48.266Z,11.01
2022-12-31T21:20:15.009Z,10.97
2022-12-31T21:22:41.922Z,10.98
2022-12-31T21:25:10.575Z,10.97
2022-12-31T21:27:37.185Z,10.97
2022-12-31T21:30:20.418Z,10.96
2022-12-31T21:32:47.706Z,10.96
2022-12-31T21:35:42.173Z,10.95
2022-12-31T21:38:03.179Z,10.96
2022-12-31T21:40:30.553Z,10.86
2022-12-31T21:42:57.358Z,10.90
2022-12-31T21:45:24.448Z,10.93
2022-12-31T21:48:11.156Z,10.91
2022-12-31T21:50:37.766Z,10.88
2022-12-31T21:53:04.391Z,10.86
2022-12-31T21:55:50.866Z,10.84
2022-12-31T21:58:26.349Z,10.76
2022-12-31T22:01:14.074Z,10.79
2022-12-31T22:03:40.881Z,10.79
2022-12-31T22:06:14.181Z,10.77
2022-12-31T22:08:42.111Z,10.75
2022-12-31T22:11:10.027Z,10.70
2022-12-31T22:13:37.271Z,10.71
2022-12-31T22:16:05.928Z,10.69
2022-12-31T22:18:35.761Z,10.58
2022-12-31T22:21:05.703Z,10.58
2022-12-31T22:23:33.717Z,10.58
2022-12-31T22:26:01.067Z,10.56
2022-12-31T22:28:38.090Z,10.51
2022-12-31T22:31:06.428Z,10.49
2022-12-31T22:33:33.094Z,10.46
2022-12-31T22:38:36.742Z,10.41
2022-12-31T22:41:09.812Z,10.37
2022-12-31T22:43:42.101Z,10.35
2022-12-31T22:46:11.671Z,10.37
2022-12-31T22:48:38.816Z,10.36
2022-12-31T22:51:06.335Z,10.36
2022-12-31T22:53:33.418Z,10.34
2022-12-31T22:56:00.253Z,10.32
2022-12-31T22:58:26.970Z,10.31
2022-12-31T23:00:53.761Z,10.27
2022-12-31T23:03:20.481Z,10.26
2022-12-31T23:05:51.805Z,10.23
2022-12-31T23:08:23.413Z,10.23
2022-12-31T23:11:00.859Z,10.19
2022-12-31T23:13:51.416Z,10.14
2022-12-31T23:16:39.029Z,10.10
2022-12-31T23:19:26.228Z,10.05
2022-12-31T23:22:13.858Z,10.00
2022-12-31T23:24:40.643Z,9.98
2022-12-31T23:27:08.016Z,9.98
2022-12-31T23:29:43.697Z,9.98
2022-12-31T23:32:13.290Z,10.01
2022-12-31T23:34:39.872Z,9.99
2022-12-31T23:37:06.428Z,10.03
2022-12-31T23:39:33.046Z,10.05
2022-12-31T23:42:00.463Z,10.06
2022-12-31T23:44:27.914Z,10.05
2022-12-31T23:46:55.229Z,10.06
2022-12-31T23:49:22.101Z,10.07
2022-12-31T23:51:49.070Z,10.08
2022-12-31T23:54:16.006Z,10.10
2022-12-31T23:56:42.753Z,10.10
2022-12-31T23:59:10.851Z,10.12
